createdAt,value
2019-05-29T16:19:19.329Z,72.21
2019-05-29T16:21:51.120Z,70.40
2019-05-29T16:24:23.048Z,70.11
2019-05-29T16:27:08.049Z,72.31
2019-05-29T16:29:34.214Z,72.89
2019-05-29T16:32:06.389Z,74.37
2019-05-29T16:34:40.028Z,75.64
2019-05-29T16:37:13.628Z,73.32
2019-05-29T16:39:49.198Z,74.96
2019-05-29T16:42:20.566Z,74.51
2019-05-29T16:44:52.035Z,74.71
2019-05-29T16:47:24.544Z,76.50
2019-05-29T16:49:58.339Z,76.68
2019-05-29T16:52:29.842Z,78.86
2019-05-29T16:55:01.278Z,80.16
2019-05-29T16:57:33.425Z,81.02
2019-05-29T17:00:28.093Z,81.95
2019-05-29T17:03:02.495Z,82.13
2019-05-29T17:05:40.145Z,83.68
2019-05-29T17:08:18.041Z,84.51
2019-05-29T17:10:55.312Z,84.56
2019-05-29T17:13:29.426Z,84.46
2019-05-29T17:16:05.273Z,84.62
2019-05-29T17:18:36.510Z,84.68
2019-05-29T17:21:09.622Z,84.40
2019-05-29T17:24:09.739Z,84.37
2019-05-29T17:27:10.200Z,84.55
2019-05-29T17:30:09.851Z,84.30
2019-05-29T17:32:46.218Z,84.22
2019-05-29T17:35:35.749Z,84.19
2019-05-29T17:38:34.940Z,84.50
2019-05-29T17:41:34.238Z,84.98
2019-05-29T17:44:30.832Z,85.19
2019-05-29T17:47:25.755Z,85.71
2019-05-29T17:50:23.309Z,86.08
2019-05-29T17:53:22.453Z,86.68
2019-05-29T17:56:32.018Z,87.24
2019-05-29T17:59:13.796Z,87.75
2019-05-29T18:02:11.892Z,88.08
2019-05-29T18:05:09.631Z,88.33
2019-05-29T18:08:03.633Z,88.44
2019-05-29T18:10:57.284Z,88.60
2019-05-29T18:13:50.678Z,88.98
2019-05-29T18:16:42.091Z,89.31
2019-05-29T18:19:36.765Z,89.44
2019-05-29T18:22:46.577Z,89.68
2019-05-29T18:25:24.009Z,89.63
2019-05-29T18:28:24.032Z,89.74
2019-05-29T18:31:13.331Z,89.78
2019-05-29T18:34:13.920Z,89.92
2019-05-29T18:37:05.871Z,90.16
2019-05-29T18:40:00.708Z,90.59
2019-05-29T18:42:53.732Z,90.72
2019-05-29T18:45:48.243Z,90.84
2019-05-29T18:48:45.784Z,91.04
2019-05-29T18:51:36.864Z,90.99
2019-05-29T18:54:35.613Z,91.08
2019-05-29T18:57:33.132Z,91.22
2019-05-29T19:00:33.082Z,91.24
2019-05-29T19:03:27.527Z,91.28
2019-05-29T19:06:25.555Z,91.16
2019-05-29T19:09:19.228Z,90.99
2019-05-29T19:12:23.725Z,91.06
2019-05-29T19:15:32.115Z,91.07
2019-05-29T19:18:32.392Z,91.13
2019-05-29T19:21:38.758Z,91.09
2019-05-29T19:24:35.568Z,91.12
2019-05-29T19:27:37.668Z,91.13
2019-05-29T19:30:29.567Z,91.25
2019-05-29T19:33:31.347Z,91.41
2019-05-29T19:36:13.754Z,91.53
2019-05-29T19:39:09.913Z,91.58
2019-05-29T19:42:07.832Z,91.60
2019-05-29T19:45:09.912Z,91.64
2019-05-29T19:48:12.464Z,91.47
2019-05-29T19:51:10.589Z,91.49
2019-05-29T19:54:00.232Z,91.42
2019-05-29T19:56:59.889Z,91.51
2019-05-29T19:59:49.804Z,91.41
2019-05-29T20:02:51.659Z,91.20
2019-05-29T20:05:59.796Z,91.11
2019-05-29T20:09:04.954Z,91.09
2019-05-29T20:12:07.797Z,90.90
2019-05-29T20:15:06.843Z,90.92
2019-05-29T20:18:08.190Z,90.90
2019-05-29T20:21:08.133Z,90.93
2019-05-29T20:24:02.545Z,91.08
2019-05-29T20:26:54.972Z,91.03
2019-05-29T20:29:49.446Z,90.73
2019-05-29T20:32:23.007Z,90.48
2019-05-29T20:34:55.734Z,90.28
2019-05-29T20:37:34.060Z,90.28
2019-05-29T20:40:14.132Z,90.36
2019-05-29T20:42:49.983Z,90.25
2019-05-29T20:45:21.957Z,90.12
2019-05-29T20:47:56.510Z,90.11
2019-05-29T20:50:44.772Z,90.29
2019-05-29T20:53:21.147Z,90.47
2019-05-29T20:56:39.803Z,90.52
2019-05-29T20:59:18.163Z,90.48
2019-05-29T21:01:51.532Z,90.66
2019-05-29T21:05:02.612Z,90.84
2019-05-29T21:08:36.846Z,91.19
2019-05-29T21:11:56.382Z,91.66
2019-05-29T21:15:15.555Z,92.00
2019-05-29T21:27:35.083Z,92.84
2019-05-29T21:30:17.583Z,92.94
2019-05-29T21:33:17.599Z,93.03
2019-05-29T21:35:51.509Z,92.99
2019-05-29T21:38:29.188Z,92.90
2019-05-29T21:41:00.722Z,92.88
2019-05-29T21:43:36.952Z,92.96
2019-05-29T21:46:11.448Z,92.99
2019-05-29T21:48:51.393Z,93.08
2019-05-29T21:52:12.712Z,93.01
2019-05-29T21:54:45.955Z,93.05
2019-05-29T21:57:34.387Z,93.15
2019-05-29T22:00:30.164Z,93.30
2019-05-29T22:03:36.339Z,93.33
2019-05-29T22:06:13.974Z,93.34
2019-05-29T22:08:52.877Z,93.22
2019-05-29T22:12:29.027Z,93.11
2019-05-29T22:15:34.993Z,93.13
2019-05-29T22:18:12.725Z,93.17
2019-05-29T22:20:45.174Z,93.18
2019-05-29T22:23:16.570Z,93.25
2019-05-29T22:26:26.912Z,93.28
2019-05-29T22:29:15.673Z,93.29
2019-05-29T22:32:21.225Z,93.27
2019-05-29T22:35:39.139Z,93.28
2019-05-29T22:38:37.356Z,93.37
2019-05-29T22:41:15.737Z,93.30
2019-05-29T22:43:47.763Z,93.32
2019-05-29T22:46:20.178Z,93.29
2019-05-29T22:49:29.886Z,93.27
2019-05-29T22:52:11.012Z,93.17
2019-05-29T22:55:09.617Z,92.99
2019-05-29T22:58:22.273Z,93.06
2019-05-29T23:01:17.259Z,93.04
2019-05-29T23:04:38.675Z,92.98
2019-05-29T23:07:58.720Z,93.16
2019-05-29T23:10:41.940Z,93.28
2019-05-29T23:13:14.870Z,93.34
2019-05-29T23:15:47.767Z,93.35
2019-05-29T23:18:24.827Z,93.47
2019-05-29T23:21:31.038Z,93.48
2019-05-29T23:24:46.775Z,93.49
2019-05-29T23:28:11.441Z,93.48
2019-05-29T23:31:36.101Z,93.55
2019-05-29T23:34:55.039Z,93.56
2019-05-29T23:38:10.772Z,93.57
2019-05-29T23:41:12.462Z,93.58
2019-05-29T23:44:18.150Z,93.59
2019-05-29T23:47:09.290Z,93.57
2019-05-29T23:50:26.551Z,93.59
2019-05-29T23:53:19.075Z,93.65
2019-05-29T23:55:54.161Z,93.61
2019-05-29T23:58:27.143Z,93.65
